VLG4VU LEBL-LEIB
Flight info
| Callsign | VLG4VU |
|---|---|
| Flight time | 0h 39m |
| Altitude | 19000 |
| Route | LARPA N859 TOLSO |
| Aircraft | A320/M-SDE3FGHIRWY/LB1 |
Departure
| Time | 2026-05-07 19:12 |
|---|---|
| Airport | Josep Tarradellas Barcelona-El Prat Airport (LEBL) |
Arrival
| Time | 2026-05-07 19:51 |
|---|---|
| Airport | Ibiza Airport (LEIB) |
| Time | Latitude | Longitude | Altitude | Speed | Heading |
|---|---|---|---|---|---|
| 2026-05-07 18:45 | 41.29077 | 2.07187 | -24 ft | 0 kts | 155° |
| 2026-05-07 19:01 | 41.29093 | 2.07177 | 3 ft | 4 kts | 155° |
| 2026-05-07 19:01 | 41.29117 | 2.07161 | 3 ft | 4 kts | 148° |
| 2026-05-07 19:02 | 41.29139 | 2.07140 | 3 ft | 4 kts | 132° |
| 2026-05-07 19:02 | 41.29150 | 2.07122 | 3 ft | 1 kts | 117° |
| 2026-05-07 19:04 | 41.29147 | 2.07132 | 4 ft | 2 kts | 104° |
| 2026-05-07 19:05 | 41.29154 | 2.07168 | 3 ft | 6 kts | 65° |
| 2026-05-07 19:05 | 41.29178 | 2.07238 | 3 ft | 11 kts | 65° |
| 2026-05-07 19:05 | 41.29214 | 2.07344 | 4 ft | 14 kts | 65° |
| 2026-05-07 19:05 | 41.29289 | 2.07396 | 4 ft | 13 kts | 34° |
| 2026-05-07 19:06 | 41.29332 | 2.07507 | 3 ft | 15 kts | 66° |
| 2026-05-07 19:06 | 41.29419 | 2.07785 | 3 ft | 18 kts | 65° |
| 2026-05-07 19:06 | 41.29473 | 2.07943 | 3 ft | 20 kts | 65° |
| 2026-05-07 19:07 | 41.29531 | 2.08111 | 3 ft | 21 kts | 65° |
| 2026-05-07 19:07 | 41.29552 | 2.08261 | 3 ft | 16 kts | 125° |
| 2026-05-07 19:07 | 41.29446 | 2.08334 | 3 ft | 18 kts | 156° |
| 2026-05-07 19:07 | 41.29327 | 2.08405 | 3 ft | 19 kts | 155° |
| 2026-05-07 19:08 | 41.29198 | 2.08447 | 3 ft | 20 kts | 194° |
| 2026-05-07 19:08 | 41.29064 | 2.08387 | 3 ft | 21 kts | 199° |
| 2026-05-07 19:08 | 41.28920 | 2.08321 | 3 ft | 23 kts | 199° |
| 2026-05-07 19:08 | 41.28800 | 2.08267 | 3 ft | 18 kts | 199° |
| 2026-05-07 19:09 | 41.28679 | 2.08193 | 3 ft | 20 kts | 231° |
| 2026-05-07 19:09 | 41.28616 | 2.08015 | 3 ft | 23 kts | 245° |
| 2026-05-07 19:09 | 41.28545 | 2.07810 | 3 ft | 26 kts | 246° |
| 2026-05-07 19:09 | 41.28468 | 2.07584 | 3 ft | 28 kts | 246° |
| 2026-05-07 19:10 | 41.28379 | 2.07453 | 4 ft | 17 kts | 201° |
| 2026-05-07 19:10 | 41.28277 | 2.07405 | 7 ft | 9 kts | 193° |
| 2026-05-07 19:10 | 41.28235 | 2.07443 | 8 ft | 8 kts | 101° |
| 2026-05-07 19:10 | 41.28246 | 2.07492 | 9 ft | 0 kts | 65° |
| 2026-05-07 19:11 | 41.28257 | 2.07523 | 10 ft | 22 kts | 65° |
| 2026-05-07 19:11 | 41.28426 | 2.08015 | 7 ft | 92 kts | 65° |
| 2026-05-07 19:11 | 41.28768 | 2.09008 | 7 ft | 142 kts | 65° |
| 2026-05-07 19:11 | 41.29202 | 2.10289 | 428 ft | 152 kts | 67° |
| 2026-05-07 19:12 | 41.29386 | 2.11673 | 1059 ft | 156 kts | 94° |
| 2026-05-07 19:12 | 41.29252 | 2.13197 | 1410 ft | 177 kts | 97° |
| 2026-05-07 19:12 | 41.29082 | 2.14910 | 1736 ft | 198 kts | 97° |
| 2026-05-07 19:12 | 41.28896 | 2.16778 | 2325 ft | 207 kts | 97° |
| 2026-05-07 19:13 | 41.28708 | 2.18686 | 3162 ft | 208 kts | 97° |
| 2026-05-07 19:13 | 41.28523 | 2.20606 | 3970 ft | 210 kts | 97° |
| 2026-05-07 19:13 | 41.28339 | 2.22552 | 4773 ft | 214 kts | 97° |
| 2026-05-07 19:13 | 41.28153 | 2.24525 | 5564 ft | 216 kts | 97° |
| 2026-05-07 19:14 | 41.27961 | 2.26525 | 6337 ft | 221 kts | 100° |
| 2026-05-07 19:14 | 41.27385 | 2.28392 | 7047 ft | 225 kts | 127° |
| 2026-05-07 19:14 | 41.26133 | 2.29684 | 7796 ft | 231 kts | 159° |
| 2026-05-07 19:14 | 41.24542 | 2.30028 | 8561 ft | 235 kts | 176° |
| 2026-05-07 19:15 | 41.22920 | 2.30149 | 9345 ft | 237 kts | 176° |
| 2026-05-07 19:15 | 41.21259 | 2.30270 | 10104 ft | 241 kts | 176° |
| 2026-05-07 19:15 | 41.19509 | 2.30399 | 10461 ft | 263 kts | 176° |
| 2026-05-07 19:15 | 41.17592 | 2.30544 | 10747 ft | 287 kts | 176° |
| 2026-05-07 19:16 | 41.15515 | 2.30705 | 10999 ft | 311 kts | 176° |
| 2026-05-07 19:16 | 41.13278 | 2.30883 | 11244 ft | 332 kts | 176° |
| 2026-05-07 19:16 | 41.10936 | 2.31068 | 11801 ft | 341 kts | 176° |
| 2026-05-07 19:16 | 41.09359 | 2.31191 | 12255 ft | 345 kts | 176° |
| 2026-05-07 19:17 | 41.06948 | 2.31378 | 12924 ft | 350 kts | 176° |
| 2026-05-07 19:17 | 41.04504 | 2.31571 | 13606 ft | 354 kts | 176° |
| 2026-05-07 19:17 | 41.02029 | 2.31773 | 14218 ft | 358 kts | 177° |
| 2026-05-07 19:17 | 40.98688 | 2.32043 | 15098 ft | 361 kts | 178° |
| 2026-05-07 19:18 | 40.97020 | 2.32177 | 15546 ft | 362 kts | 178° |
| 2026-05-07 19:18 | 40.94503 | 2.32376 | 16208 ft | 363 kts | 178° |
| 2026-05-07 19:18 | 40.91976 | 2.32572 | 16877 ft | 364 kts | 178° |
| 2026-05-07 19:18 | 40.89435 | 2.32765 | 17530 ft | 367 kts | 178° |
| 2026-05-07 19:19 | 40.86882 | 2.32960 | 17934 ft | 367 kts | 178° |
| 2026-05-07 19:19 | 40.84330 | 2.33154 | 18333 ft | 368 kts | 178° |
| 2026-05-07 19:19 | 40.81769 | 2.33354 | 18603 ft | 369 kts | 178° |
| 2026-05-07 19:19 | 40.79200 | 2.33558 | 18835 ft | 370 kts | 178° |
| 2026-05-07 19:20 | 40.76628 | 2.33765 | 18946 ft | 371 kts | 178° |
| 2026-05-07 19:20 | 40.74043 | 2.33974 | 18973 ft | 372 kts | 178° |
| 2026-05-07 19:20 | 40.71459 | 2.34183 | 18973 ft | 372 kts | 178° |
| 2026-05-07 19:20 | 40.68873 | 2.34388 | 18972 ft | 372 kts | 178° |
| 2026-05-07 19:21 | 40.66288 | 2.34590 | 18977 ft | 372 kts | 178° |
| 2026-05-07 19:21 | 40.63699 | 2.34798 | 18979 ft | 372 kts | 176° |
| 2026-05-07 19:21 | 40.61145 | 2.35384 | 18970 ft | 374 kts | 167° |
| 2026-05-07 19:21 | 40.58627 | 2.36268 | 18972 ft | 374 kts | 166° |
| 2026-05-07 19:22 | 40.56147 | 2.37139 | 18969 ft | 374 kts | 166° |
| 2026-05-07 19:22 | 40.53630 | 2.38024 | 18974 ft | 374 kts | 166° |
| 2026-05-07 19:22 | 40.51118 | 2.38905 | 18975 ft | 374 kts | 166° |
| 2026-05-07 19:22 | 40.48604 | 2.39782 | 18974 ft | 374 kts | 167° |
| 2026-05-07 19:23 | 40.46085 | 2.40655 | 18978 ft | 374 kts | 167° |
| 2026-05-07 19:23 | 40.43570 | 2.41528 | 18978 ft | 374 kts | 167° |
| 2026-05-07 19:23 | 40.41052 | 2.42405 | 18982 ft | 374 kts | 166° |
| 2026-05-07 19:23 | 40.38542 | 2.43280 | 18981 ft | 373 kts | 166° |
| 2026-05-07 19:24 | 40.36033 | 2.44153 | 18986 ft | 373 kts | 166° |
| 2026-05-07 19:24 | 40.33522 | 2.45026 | 18986 ft | 373 kts | 166° |
| 2026-05-07 19:24 | 40.31015 | 2.45897 | 18989 ft | 372 kts | 166° |
| 2026-05-07 19:24 | 40.28518 | 2.46762 | 18993 ft | 372 kts | 166° |
| 2026-05-07 19:25 | 40.26016 | 2.47628 | 18995 ft | 371 kts | 166° |
| 2026-05-07 19:25 | 40.23522 | 2.48490 | 18996 ft | 371 kts | 166° |
| 2026-05-07 19:25 | 40.21008 | 2.49216 | 18995 ft | 370 kts | 173° |
| 2026-05-07 19:25 | 40.18446 | 2.49340 | 18996 ft | 369 kts | 183° |
| 2026-05-07 19:26 | 40.15898 | 2.48968 | 18998 ft | 368 kts | 186° |
| 2026-05-07 19:26 | 40.13329 | 2.48560 | 18984 ft | 379 kts | 186° |
| 2026-05-07 19:26 | 40.10647 | 2.48138 | 18976 ft | 397 kts | 186° |
| 2026-05-07 19:26 | 40.07905 | 2.47709 | 18969 ft | 404 kts | 186° |
| 2026-05-07 19:27 | 40.05095 | 2.47272 | 18965 ft | 407 kts | 186° |
| 2026-05-07 19:27 | 40.02285 | 2.46839 | 18968 ft | 407 kts | 186° |
| 2026-05-07 19:27 | 39.99472 | 2.46402 | 18967 ft | 407 kts | 188° |
| 2026-05-07 19:27 | 39.96745 | 2.45403 | 18965 ft | 409 kts | 203° |
| 2026-05-07 19:28 | 39.94320 | 2.43453 | 18969 ft | 411 kts | 215° |
| 2026-05-07 19:28 | 39.92026 | 2.41231 | 18966 ft | 411 kts | 216° |
| 2026-05-07 19:28 | 39.89736 | 2.38994 | 18961 ft | 412 kts | 216° |
| 2026-05-07 19:28 | 39.87451 | 2.36753 | 18966 ft | 412 kts | 216° |
| 2026-05-07 19:29 | 39.85161 | 2.34509 | 18964 ft | 412 kts | 216° |
| 2026-05-07 19:29 | 39.82874 | 2.32270 | 18966 ft | 412 kts | 216° |
| 2026-05-07 19:29 | 39.80585 | 2.30034 | 18960 ft | 412 kts | 216° |
| 2026-05-07 19:29 | 39.78290 | 2.27799 | 18959 ft | 412 kts | 216° |
| 2026-05-07 19:30 | 39.75996 | 2.25568 | 18961 ft | 412 kts | 216° |
| 2026-05-07 19:30 | 39.73700 | 2.23334 | 18955 ft | 412 kts | 216° |
| 2026-05-07 19:30 | 39.71429 | 2.21127 | 18957 ft | 413 kts | 216° |
| 2026-05-07 19:30 | 39.69133 | 2.18901 | 18956 ft | 413 kts | 216° |
| 2026-05-07 19:31 | 39.66823 | 2.16667 | 18957 ft | 413 kts | 215° |
| 2026-05-07 19:31 | 39.64533 | 2.14455 | 18953 ft | 403 kts | 215° |
| 2026-05-07 19:31 | 39.62340 | 2.12332 | 18966 ft | 384 kts | 215° |
| 2026-05-07 19:31 | 39.60239 | 2.10296 | 18966 ft | 375 kts | 215° |
| 2026-05-07 19:32 | 39.58152 | 2.08276 | 18964 ft | 373 kts | 215° |
| 2026-05-07 19:32 | 39.56074 | 2.06271 | 18969 ft | 372 kts | 215° |
| 2026-05-07 19:32 | 39.53995 | 2.04272 | 18966 ft | 372 kts | 215° |
| 2026-05-07 19:32 | 39.51919 | 2.02275 | 18964 ft | 372 kts | 215° |
| 2026-05-07 19:33 | 39.49841 | 2.00274 | 18963 ft | 372 kts | 215° |
| 2026-05-07 19:33 | 39.47765 | 1.98273 | 18965 ft | 371 kts | 215° |
| 2026-05-07 19:33 | 39.45698 | 1.96281 | 18962 ft | 371 kts | 215° |
| 2026-05-07 19:33 | 39.43625 | 1.94283 | 18965 ft | 371 kts | 215° |
| 2026-05-07 19:34 | 39.41553 | 1.92293 | 18965 ft | 371 kts | 215° |
| 2026-05-07 19:34 | 39.39479 | 1.90304 | 18967 ft | 371 kts | 215° |
| 2026-05-07 19:34 | 39.37406 | 1.88319 | 18946 ft | 369 kts | 215° |
| 2026-05-07 19:34 | 39.35367 | 1.86368 | 18641 ft | 360 kts | 215° |
| 2026-05-07 19:35 | 39.33368 | 1.84456 | 18293 ft | 354 kts | 215° |
| 2026-05-07 19:35 | 39.31404 | 1.82573 | 17890 ft | 348 kts | 215° |
| 2026-05-07 19:35 | 39.29469 | 1.80720 | 17492 ft | 343 kts | 215° |
| 2026-05-07 19:35 | 39.27561 | 1.78896 | 17095 ft | 339 kts | 215° |
| 2026-05-07 19:36 | 39.25680 | 1.77103 | 16709 ft | 334 kts | 215° |
| 2026-05-07 19:36 | 39.23839 | 1.75349 | 16326 ft | 332 kts | 215° |
| 2026-05-07 19:36 | 39.21986 | 1.73579 | 15944 ft | 329 kts | 216° |
| 2026-05-07 19:36 | 39.20281 | 1.71624 | 15573 ft | 329 kts | 225° |
| 2026-05-07 19:37 | 39.18842 | 1.69343 | 15186 ft | 328 kts | 232° |
| 2026-05-07 19:37 | 39.17469 | 1.67004 | 14823 ft | 326 kts | 231° |
| 2026-05-07 19:37 | 39.16115 | 1.64711 | 14489 ft | 325 kts | 231° |
| 2026-05-07 19:37 | 39.14750 | 1.62410 | 14158 ft | 323 kts | 231° |
| 2026-05-07 19:38 | 39.13386 | 1.60117 | 13820 ft | 321 kts | 231° |
| 2026-05-07 19:38 | 39.12030 | 1.57843 | 13458 ft | 320 kts | 231° |
| 2026-05-07 19:38 | 39.10680 | 1.55576 | 13080 ft | 318 kts | 232° |
| 2026-05-07 19:38 | 39.09342 | 1.53323 | 12713 ft | 316 kts | 232° |
| 2026-05-07 19:39 | 39.08009 | 1.51084 | 12355 ft | 314 kts | 232° |
| 2026-05-07 19:39 | 39.06680 | 1.48853 | 11999 ft | 313 kts | 232° |
| 2026-05-07 19:39 | 39.05360 | 1.46635 | 11642 ft | 312 kts | 232° |
| 2026-05-07 19:39 | 39.04041 | 1.44421 | 11291 ft | 310 kts | 232° |
| 2026-05-07 19:40 | 39.02747 | 1.42210 | 10947 ft | 309 kts | 233° |
| 2026-05-07 19:40 | 39.01471 | 1.39999 | 10604 ft | 307 kts | 233° |
| 2026-05-07 19:40 | 39.00209 | 1.37798 | 10266 ft | 305 kts | 233° |
| 2026-05-07 19:40 | 38.98954 | 1.35611 | 9935 ft | 303 kts | 233° |
| 2026-05-07 19:41 | 38.97717 | 1.33462 | 9570 ft | 293 kts | 233° |
| 2026-05-07 19:41 | 38.96509 | 1.31374 | 9196 ft | 290 kts | 233° |
| 2026-05-07 19:41 | 38.95304 | 1.29297 | 8834 ft | 289 kts | 233° |
| 2026-05-07 19:41 | 38.94098 | 1.27225 | 8472 ft | 290 kts | 233° |
| 2026-05-07 19:42 | 38.92881 | 1.25139 | 8093 ft | 292 kts | 233° |
| 2026-05-07 19:42 | 38.91681 | 1.23077 | 7704 ft | 284 kts | 233° |
| 2026-05-07 19:42 | 38.90507 | 1.21062 | 7278 ft | 279 kts | 234° |
| 2026-05-07 19:42 | 38.89372 | 1.19110 | 6871 ft | 274 kts | 234° |
| 2026-05-07 19:43 | 38.88329 | 1.17054 | 6456 ft | 269 kts | 244° |
| 2026-05-07 19:43 | 38.87470 | 1.14979 | 6084 ft | 264 kts | 243° |
| 2026-05-07 19:43 | 38.86613 | 1.12920 | 5757 ft | 261 kts | 243° |
| 2026-05-07 19:43 | 38.85756 | 1.10864 | 5445 ft | 261 kts | 244° |
| 2026-05-07 19:44 | 38.84873 | 1.08837 | 5173 ft | 260 kts | 236° |
| 2026-05-07 19:44 | 38.83588 | 1.07257 | 5002 ft | 254 kts | 210° |
| 2026-05-07 19:44 | 38.81961 | 1.06515 | 4827 ft | 246 kts | 184° |
| 2026-05-07 19:44 | 38.80309 | 1.06679 | 4653 ft | 234 kts | 159° |
| 2026-05-07 19:45 | 38.78913 | 1.07601 | 4475 ft | 221 kts | 136° |
| 2026-05-07 19:45 | 38.77935 | 1.09044 | 4289 ft | 210 kts | 115° |
| 2026-05-07 19:45 | 38.77434 | 1.10737 | 4115 ft | 199 kts | 96° |
| 2026-05-07 19:45 | 38.77396 | 1.12464 | 3929 ft | 192 kts | 77° |
| 2026-05-07 19:46 | 38.77767 | 1.14080 | 3754 ft | 189 kts | 66° |
| 2026-05-07 19:46 | 38.78277 | 1.15626 | 3566 ft | 188 kts | 60° |
| 2026-05-07 19:46 | 38.78891 | 1.17111 | 3282 ft | 188 kts | 59° |
| 2026-05-07 19:46 | 38.79508 | 1.18593 | 3023 ft | 188 kts | 59° |
| 2026-05-07 19:47 | 38.80124 | 1.20072 | 2767 ft | 187 kts | 59° |
| 2026-05-07 19:47 | 38.80734 | 1.21536 | 2520 ft | 185 kts | 59° |
| 2026-05-07 19:47 | 38.81340 | 1.22989 | 2289 ft | 183 kts | 59° |
| 2026-05-07 19:47 | 38.81927 | 1.24403 | 2032 ft | 176 kts | 59° |
| 2026-05-07 19:48 | 38.82492 | 1.25763 | 1796 ft | 170 kts | 59° |
| 2026-05-07 19:48 | 38.83025 | 1.27046 | 1567 ft | 156 kts | 59° |
| 2026-05-07 19:48 | 38.83516 | 1.28225 | 1373 ft | 141 kts | 59° |
| 2026-05-07 19:48 | 38.83971 | 1.29319 | 1172 ft | 137 kts | 61° |
| 2026-05-07 19:49 | 38.84411 | 1.30384 | 990 ft | 134 kts | 59° |
| 2026-05-07 19:49 | 38.84850 | 1.31433 | 814 ft | 135 kts | 59° |
| 2026-05-07 19:49 | 38.85291 | 1.32500 | 638 ft | 135 kts | 59° |
| 2026-05-07 19:49 | 38.85732 | 1.33559 | 470 ft | 134 kts | 60° |
| 2026-05-07 19:50 | 38.86125 | 1.34512 | 297 ft | 132 kts | 60° |
| 2026-05-07 19:50 | 38.86555 | 1.35548 | 107 ft | 131 kts | 59° |
| 2026-05-07 19:50 | 38.86969 | 1.36552 | 7 ft | 116 kts | 61° |
| 2026-05-07 19:50 | 38.87274 | 1.37284 | 6 ft | 69 kts | 62° |
| 2026-05-07 19:51 | 38.87436 | 1.37675 | 5 ft | 30 kts | 60° |
| 2026-05-07 19:51 | 38.87576 | 1.37850 | 7 ft | 19 kts | 33° |
| 2026-05-07 19:51 | 38.87659 | 1.37913 | 8 ft | 14 kts | 13° |
| 2026-05-07 19:51 | 38.87684 | 1.37827 | 10 ft | 15 kts | 242° |
| 2026-05-07 19:52 | 38.87632 | 1.37702 | 8 ft | 17 kts | 241° |
| 2026-05-07 19:52 | 38.87583 | 1.37585 | 8 ft | 8 kts | 248° |
| 2026-05-07 19:52 | 38.87622 | 1.37530 | 8 ft | 12 kts | 330° |
| 2026-05-07 19:52 | 38.87698 | 1.37459 | 8 ft | 15 kts | 291° |
| 2026-05-07 19:53 | 38.87657 | 1.37333 | 8 ft | 17 kts | 241° |
| 2026-05-07 19:53 | 38.87609 | 1.37216 | 10 ft | 8 kts | 242° |
| 2026-05-07 19:53 | 38.87595 | 1.37183 | 10 ft | 0 kts | 242° |
| 2026-05-07 19:55 | 38.87581 | 1.37148 | 8 ft | 8 kts | 242° |
| 2026-05-07 19:55 | 38.87549 | 1.37070 | 8 ft | 11 kts | 242° |
| 2026-05-07 19:55 | 38.87512 | 1.36978 | 11 ft | 6 kts | 242° |
| 2026-05-07 19:55 | 38.87529 | 1.36940 | 8 ft | 6 kts | 328° |
| 2026-05-07 19:56 | 38.87552 | 1.36925 | 8 ft | 2 kts | 333° |
| 2026-05-07 19:56 | 38.87565 | 1.36917 | 8 ft | 0 kts | 333° |
| 2026-05-07 19:56 | 38.87567 | 1.36915 | 8 ft | 0 kts | 333° |